sensor_id;sensor_type;location;lat;lon;timestamp;temperature;humidity
43862;DHT22;29510;52.140;5.034;2023-02-01T00:03:48;6.00;21.90
43862;DHT22;29510;52.140;5.034;2023-02-01T00:13:49;6.10;24.30
43862;DHT22;29510;52.140;5.034;2023-02-01T00:23:50;6.00;27.50
43862;DHT22;29510;52.140;5.034;2023-02-01T00:33:51;6.20;27.90
43862;DHT22;29510;52.140;5.034;2023-02-01T00:43:52;6.40;20.20
43862;DHT22;29510;52.140;5.034;2023-02-01T00:53:53;6.50;17.90
43862;DHT22;29510;52.140;5.034;2023-02-01T01:03:57;6.50;16.60
43862;DHT22;29510;52.140;5.034;2023-02-01T01:13:59;6.50;12.90
43862;DHT22;29510;52.140;5.034;2023-02-01T01:24:01;6.50;10.40
43862;DHT22;29510;52.140;5.034;2023-02-01T01:34:02;6.50;10.70
43862;DHT22;29510;52.140;5.034;2023-02-01T01:54:48;6.70;10.90
43862;DHT22;29510;52.140;5.034;2023-02-01T02:04:51;6.80;11.90
43862;DHT22;29510;52.140;5.034;2023-02-01T02:14:52;6.90;14.30
43862;DHT22;29510;52.140;5.034;2023-02-01T02:56:20;7.30;9.20
43862;DHT22;29510;52.140;5.034;2023-02-01T03:06:40;7.40;6.50
43862;DHT22;29510;52.140;5.034;2023-02-01T03:16:51;7.20;8.10
43862;DHT22;29510;52.140;5.034;2023-02-01T03:26:55;7.20;6.60
43862;DHT22;29510;52.140;5.034;2023-02-01T03:37:03;7.00;8.20
43862;DHT22;29510;52.140;5.034;2023-02-01T03:47:08;6.80;11.00
43862;DHT22;29510;52.140;5.034;2023-02-01T03:57:14;6.80;12.30
43862;DHT22;29510;52.140;5.034;2023-02-01T04:07:17;6.90;11.80
43862;DHT22;29510;52.140;5.034;2023-02-01T04:17:18;7.10;8.10
43862;DHT22;29510;52.140;5.034;2023-02-01T04:27:19;7.20;6.10
43862;DHT22;29510;52.140;5.034;2023-02-01T04:37:20;7.20;7.10
43862;DHT22;29510;52.140;5.034;2023-02-01T04:47:21;7.00;8.50
43862;DHT22;29510;52.140;5.034;2023-02-01T04:57:22;6.90;9.60
43862;DHT22;29510;52.140;5.034;2023-02-01T05:07:23;6.70;11.10
43862;DHT22;29510;52.140;5.034;2023-02-01T05:17:24;6.60;13.00
43862;DHT22;29510;52.140;5.034;2023-02-01T05:27:25;6.60;12.80
43862;DHT22;29510;52.140;5.034;2023-02-01T05:37:26;6.60;13.80
43862;DHT22;29510;52.140;5.034;2023-02-01T05:47:27;6.60;16.50
43862;DHT22;29510;52.140;5.034;2023-02-01T05:57:28;6.80;16.40
43862;DHT22;29510;52.140;5.034;2023-02-01T06:07:29;6.80;15.50
43862;DHT22;29510;52.140;5.034;2023-02-01T06:17:30;6.70;18.20
43862;DHT22;29510;52.140;5.034;2023-02-01T06:27:32;6.60;21.10
43862;DHT22;29510;52.140;5.034;2023-02-01T06:37:33;6.70;18.40
43862;DHT22;29510;52.140;5.034;2023-02-01T06:47:34;6.60;18.80
43862;DHT22;29510;52.140;5.034;2023-02-01T06:57:36;6.60;23.30
43862;DHT22;29510;52.140;5.034;2023-02-01T07:07:37;6.70;23.80
43862;DHT22;29510;52.140;5.034;2023-02-01T07:17:37;6.80;22.10
43862;DHT22;29510;52.140;5.034;2023-02-01T07:27:39;6.90;16.80
43862;DHT22;29510;52.140;5.034;2023-02-01T07:37:40;6.90;17.40
43862;DHT22;29510;52.140;5.034;2023-02-01T07:47:41;6.90;18.60
43862;DHT22;29510;52.140;5.034;2023-02-01T07:57:42;6.80;18.90
43862;DHT22;29510;52.140;5.034;2023-02-01T08:07:43;6.70;21.10
43862;DHT22;29510;52.140;5.034;2023-02-01T08:17:51;6.70;21.10
43862;DHT22;29510;52.140;5.034;2023-02-01T08:27:53;6.70;24.00
43862;DHT22;29510;52.140;5.034;2023-02-01T08:37:55;6.70;25.20
43862;DHT22;29510;52.140;5.034;2023-02-01T08:47:56;6.90;23.50
43862;DHT22;29510;52.140;5.034;2023-02-01T08:57:57;7.10;23.40
43862;DHT22;29510;52.140;5.034;2023-02-01T09:07:59;7.40;21.30
43862;DHT22;29510;52.140;5.034;2023-02-01T09:18:00;7.80;17.30
43862;DHT22;29510;52.140;5.034;2023-02-01T09:28:01;8.10;11.00
43862;DHT22;29510;52.140;5.034;2023-02-01T09:38:04;8.10;9.90
43862;DHT22;29510;52.140;5.034;2023-02-01T09:48:13;8.10;10.40
43862;DHT22;29510;52.140;5.034;2023-02-01T09:58:32;8.00;8.30
43862;DHT22;29510;52.140;5.034;2023-02-01T10:08:52;7.90;8.20
43862;DHT22;29510;52.140;5.034;2023-02-01T10:29:19;7.50;31.10
43862;DHT22;29510;52.140;5.034;2023-02-01T10:39:23;7.40;35.00
43862;DHT22;29510;52.140;5.034;2023-02-01T10:49:32;7.50;24.50
43862;DHT22;29510;52.140;5.034;2023-02-01T10:59:34;7.60;19.40
43862;DHT22;29510;52.140;5.034;2023-02-01T11:09:40;7.90;20.20
43862;DHT22;29510;52.140;5.034;2023-02-01T11:19:57;7.80;25.10
43862;DHT22;29510;52.140;5.034;2023-02-01T11:30:00;7.90;24.60
43862;DHT22;29510;52.140;5.034;2023-02-01T11:40:23;8.10;24.20
43862;DHT22;29510;52.140;5.034;2023-02-01T11:50:37;8.30;16.60
43862;DHT22;29510;52.140;5.034;2023-02-01T12:11:30;8.50;12.50
43862;DHT22;29510;52.140;5.034;2023-02-01T12:32:10;8.70;8.90
43862;DHT22;29510;52.140;5.034;2023-02-01T12:42:22;8.70;8.00
43862;DHT22;29510;52.140;5.034;2023-02-01T12:52:35;8.60;10.00
43862;DHT22;29510;52.140;5.034;2023-02-01T13:02:42;9.00;8.20
43862;DHT22;29510;52.140;5.034;2023-02-01T13:12:50;9.10;6.50
43862;DHT22;29510;52.140;5.034;2023-02-01T13:22:59;9.00;5.80
43862;DHT22;29510;52.140;5.034;2023-02-01T13:43:28;8.80;7.40
43862;DHT22;29510;52.140;5.034;2023-02-01T13:53:32;8.70;8.80
43862;DHT22;29510;52.140;5.034;2023-02-01T14:03:46;8.70;9.80
43862;DHT22;29510;52.140;5.034;2023-02-01T14:13:47;8.80;8.80
43862;DHT22;29510;52.140;5.034;2023-02-01T14:24:01;8.80;10.00
43862;DHT22;29510;52.140;5.034;2023-02-01T14:34:56;8.80;11.70
43862;DHT22;29510;52.140;5.034;2023-02-01T14:44:33;8.70;13.60
43862;DHT22;29510;52.140;5.034;2023-02-01T14:54:35;8.70;16.30
43862;DHT22;29510;52.140;5.034;2023-02-01T15:04:41;8.70;15.60
43862;DHT22;29510;52.140;5.034;2023-02-01T15:14:43;8.70;17.10
43862;DHT22;29510;52.140;5.034;2023-02-01T15:24:53;8.70;15.90
43862;DHT22;29510;52.140;5.034;2023-02-01T15:34:54;8.70;16.60
43862;DHT22;29510;52.140;5.034;2023-02-01T15:44:55;8.70;14.00
43862;DHT22;29510;52.140;5.034;2023-02-01T15:55:00;8.70;15.00
43862;DHT22;29510;52.140;5.034;2023-02-01T16:05:03;8.60;15.10
43862;DHT22;29510;52.140;5.034;2023-02-01T16:15:05;8.60;16.60
43862;DHT22;29510;52.140;5.034;2023-02-01T16:25:06;8.60;16.80
43862;DHT22;29510;52.140;5.034;2023-02-01T16:35:22;8.60;18.00
43862;DHT22;29510;52.140;5.034;2023-02-01T16:45:24;8.70;20.10
43862;DHT22;29510;52.140;5.034;2023-02-01T16:55:25;8.70;19.80
43862;DHT22;29510;52.140;5.034;2023-02-01T17:05:26;8.70;21.10
43862;DHT22;29510;52.140;5.034;2023-02-01T17:15:31;8.60;23.70
43862;DHT22;29510;52.140;5.034;2023-02-01T17:25:34;8.70;23.50
43862;DHT22;29510;52.140;5.034;2023-02-01T17:35:35;8.70;25.50
43862;DHT22;29510;52.140;5.034;2023-02-01T17:45:41;8.80;21.70
43862;DHT22;29510;52.140;5.034;2023-02-01T17:55:47;8.70;23.50
43862;DHT22;29510;52.140;5.034;2023-02-01T18:05:48;8.80;24.10
43862;DHT22;29510;52.140;5.034;2023-02-01T18:15:52;8.80;24.90
43862;DHT22;29510;52.140;5.034;2023-02-01T18:25:53;8.80;24.00
43862;DHT22;29510;52.140;5.034;2023-02-01T18:35:54;8.90;23.10
43862;DHT22;29510;52.140;5.034;2023-02-01T18:45:55;8.90;22.00
43862;DHT22;29510;52.140;5.034;2023-02-01T18:55:57;8.90;22.50
43862;DHT22;29510;52.140;5.034;2023-02-01T19:05:58;9.00;21.40
43862;DHT22;29510;52.140;5.034;2023-02-01T19:16:08;9.00;20.70
43862;DHT22;29510;52.140;5.034;2023-02-01T19:26:13;9.10;20.40
43862;DHT22;29510;52.140;5.034;2023-02-01T19:36:14;9.10;19.40
43862;DHT22;29510;52.140;5.034;2023-02-01T19:46:15;9.00;20.00
43862;DHT22;29510;52.140;5.034;2023-02-01T19:56:16;8.90;21.80
43862;DHT22;29510;52.140;5.034;2023-02-01T20:06:18;8.90;24.10
43862;DHT22;29510;52.140;5.034;2023-02-01T20:16:20;8.80;24.30
43862;DHT22;29510;52.140;5.034;2023-02-01T20:26:21;8.80;26.20
43862;DHT22;29510;52.140;5.034;2023-02-01T20:36:25;8.80;26.70
43862;DHT22;29510;52.140;5.034;2023-02-01T20:46:26;8.90;25.70
43862;DHT22;29510;52.140;5.034;2023-02-01T20:56:27;8.90;26.90
43862;DHT22;29510;52.140;5.034;2023-02-01T21:06:28;9.00;26.80
43862;DHT22;29510;52.140;5.034;2023-02-01T21:16:29;9.00;29.70
43862;DHT22;29510;52.140;5.034;2023-02-01T21:26:30;9.00;28.20
43862;DHT22;29510;52.140;5.034;2023-02-01T21:36:40;8.90;31.80
43862;DHT22;29510;52.140;5.034;2023-02-01T21:46:42;8.90;32.30
43862;DHT22;29510;52.140;5.034;2023-02-01T21:56:43;8.90;36.60
43862;DHT22;29510;52.140;5.034;2023-02-01T22:06:45;9.00;37.20
43862;DHT22;29510;52.140;5.034;2023-02-01T22:16:46;9.00;38.40
43862;DHT22;29510;52.140;5.034;2023-02-01T22:26:48;8.80;84.20
43862;DHT22;29510;52.140;5.034;2023-02-01T22:36:49;8.30;99.90
43862;DHT22;29510;52.140;5.034;2023-02-01T22:46:50;8.00;99.90
43862;DHT22;29510;52.140;5.034;2023-02-01T22:56:51;8.00;99.90
43862;DHT22;29510;52.140;5.034;2023-02-01T23:06:52;7.90;99.90
43862;DHT22;29510;52.140;5.034;2023-02-01T23:16:53;7.90;99.90
43862;DHT22;29510;52.140;5.034;2023-02-01T23:26:54;7.90;99.90
43862;DHT22;29510;52.140;5.034;2023-02-01T23:36:55;8.00;99.90
43862;DHT22;29510;52.140;5.034;2023-02-01T23:46:57;8.00;99.90
43862;DHT22;29510;52.140;5.034;2023-02-01T23:56:58;8.10;99.90
